sensor_id;sensor_type;location;lat;lon;timestamp;pressure;altitude;pressure_sealevel;temperature;humidity
23433;BME280;41331;45.412;10.992;2023-07-20T00:01:01;100289.25;;;24.90;100.00
23433;BME280;41331;45.412;10.992;2023-07-20T00:03:29;100302.03;;;25.04;100.00
23433;BME280;41331;45.412;10.992;2023-07-20T00:05:56;100315.28;;;24.80;100.00
23433;BME280;41331;45.412;10.992;2023-07-20T00:08:24;100318.63;;;24.71;100.00
23433;BME280;41331;45.412;10.992;2023-07-20T00:10:51;100365.94;;;24.71;100.00
23433;BME280;41331;45.412;10.992;2023-07-20T00:13:19;100427.22;;;24.68;100.00
23433;BME280;41331;45.412;10.992;2023-07-20T00:15:48;100484.16;;;24.63;100.00
23433;BME280;41331;45.412;10.992;2023-07-20T00:18:15;100469.41;;;24.66;100.00
23433;BME280;41331;45.412;10.992;2023-07-20T00:20:43;100422.25;;;24.79;100.00
23433;BME280;41331;45.412;10.992;2023-07-20T00:23:10;100370.25;;;24.52;100.00
23433;BME280;41331;45.412;10.992;2023-07-20T00:25:38;100364.13;;;24.41;100.00
23433;BME280;41331;45.412;10.992;2023-07-20T00:28:05;100359.38;;;24.38;100.00
23433;BME280;41331;45.412;10.992;2023-07-20T00:30:33;100323.97;;;24.62;100.00
23433;BME280;41331;45.412;10.992;2023-07-20T00:33:01;100337.94;;;24.59;100.00
23433;BME280;41331;45.412;10.992;2023-07-20T00:35:28;100435.53;;;23.94;100.00
23433;BME280;41331;45.412;10.992;2023-07-20T00:37:56;100522.97;;;23.89;100.00
23433;BME280;41331;45.412;10.992;2023-07-20T00:40:23;100529.66;;;24.22;100.00
23433;BME280;41331;45.412;10.992;2023-07-20T00:42:50;100522.88;;;23.96;100.00
23433;BME280;41331;45.412;10.992;2023-07-20T00:45:24;100520.28;;;23.82;100.00
23433;BME280;41331;45.412;10.992;2023-07-20T00:47:53;100496.34;;;23.92;100.00
23433;BME280;41331;45.412;10.992;2023-07-20T00:50:20;100447.81;;;23.96;100.00
23433;BME280;41331;45.412;10.992;2023-07-20T00:52:48;100414.31;;;24.07;100.00
23433;BME280;41331;45.412;10.992;2023-07-20T00:55:19;100401.31;;;24.00;100.00
23433;BME280;41331;45.412;10.992;2023-07-20T00:57:46;100406.13;;;23.96;100.00
23433;BME280;41331;45.412;10.992;2023-07-20T01:00:15;100388.69;;;23.96;100.00
23433;BME280;41331;45.412;10.992;2023-07-20T01:02:43;100379.31;;;24.10;100.00
23433;BME280;41331;45.412;10.992;2023-07-20T01:05:11;100359.91;;;24.29;100.00
23433;BME280;41331;45.412;10.992;2023-07-20T01:08:07;100387.59;;;24.13;100.00
23433;BME280;41331;45.412;10.992;2023-07-20T01:10:42;100431.31;;;23.86;100.00
23433;BME280;41331;45.412;10.992;2023-07-20T01:13:13;100433.63;;;23.91;100.00
23433;BME280;41331;45.412;10.992;2023-07-20T01:15:41;100422.66;;;24.07;100.00
23433;BME280;41331;45.412;10.992;2023-07-20T01:18:08;100420.50;;;23.91;100.00
23433;BME280;41331;45.412;10.992;2023-07-20T01:20:37;100408.00;;;24.03;100.00
23433;BME280;41331;45.412;10.992;2023-07-20T01:31:34;100401.13;;;24.11;100.00
23433;BME280;41331;45.412;10.992;2023-07-20T01:34:05;100370.59;;;24.08;100.00
23433;BME280;41331;45.412;10.992;2023-07-20T01:36:36;100341.19;;;24.10;100.00
23433;BME280;41331;45.412;10.992;2023-07-20T01:39:06;100338.34;;;24.14;100.00
23433;BME280;41331;45.412;10.992;2023-07-20T01:41:34;100353.34;;;24.20;100.00
23433;BME280;41331;45.412;10.992;2023-07-20T01:44:03;100360.56;;;24.14;100.00
23433;BME280;41331;45.412;10.992;2023-07-20T01:46:31;100363.53;;;24.26;100.00
23433;BME280;41331;45.412;10.992;2023-07-20T01:48:59;100377.16;;;24.21;100.00
23433;BME280;41331;45.412;10.992;2023-07-20T01:51:26;100385.81;;;23.99;100.00
23433;BME280;41331;45.412;10.992;2023-07-20T01:53:54;100372.94;;;23.86;100.00
23433;BME280;41331;45.412;10.992;2023-07-20T01:56:22;100370.22;;;23.82;100.00
23433;BME280;41331;45.412;10.992;2023-07-20T01:58:49;100372.00;;;23.96;100.00
23433;BME280;41331;45.412;10.992;2023-07-20T02:01:17;100366.50;;;23.92;100.00
23433;BME280;41331;45.412;10.992;2023-07-20T02:03:44;100368.84;;;23.94;100.00
23433;BME280;41331;45.412;10.992;2023-07-20T02:06:12;100342.03;;;24.07;100.00
23433;BME280;41331;45.412;10.992;2023-07-20T02:08:39;100332.72;;;24.17;100.00
23433;BME280;41331;45.412;10.992;2023-07-20T02:11:06;100350.38;;;24.31;100.00
23433;BME280;41331;45.412;10.992;2023-07-20T02:13:34;100368.75;;;24.01;100.00
23433;BME280;41331;45.412;10.992;2023-07-20T02:16:01;100361.84;;;24.09;100.00
23433;BME280;41331;45.412;10.992;2023-07-20T02:18:29;100331.66;;;23.84;100.00
23433;BME280;41331;45.412;10.992;2023-07-20T02:20:56;100322.38;;;23.71;100.00
23433;BME280;41331;45.412;10.992;2023-07-20T02:23:24;100316.81;;;23.71;100.00
23433;BME280;41331;45.412;10.992;2023-07-20T02:25:52;100321.69;;;23.63;100.00
23433;BME280;41331;45.412;10.992;2023-07-20T02:28:19;100299.75;;;23.69;100.00
23433;BME280;41331;45.412;10.992;2023-07-20T02:30:47;100280.13;;;23.80;100.00
23433;BME280;41331;45.412;10.992;2023-07-20T02:33:14;100274.41;;;23.90;100.00
23433;BME280;41331;45.412;10.992;2023-07-20T02:35:41;100279.59;;;23.88;100.00
23433;BME280;41331;45.412;10.992;2023-07-20T02:38:09;100279.13;;;23.70;100.00
23433;BME280;41331;45.412;10.992;2023-07-20T02:40:36;100274.06;;;23.61;100.00
23433;BME280;41331;45.412;10.992;2023-07-20T02:43:04;100269.88;;;23.76;100.00
23433;BME280;41331;45.412;10.992;2023-07-20T02:45:31;100268.13;;;23.86;100.00
23433;BME280;41331;45.412;10.992;2023-07-20T02:47:58;100260.81;;;23.96;100.00
23433;BME280;41331;45.412;10.992;2023-07-20T02:50:26;100259.41;;;24.08;100.00
23433;BME280;41331;45.412;10.992;2023-07-20T02:52:53;100252.72;;;24.05;100.00
23433;BME280;41331;45.412;10.992;2023-07-20T02:55:21;100259.41;;;23.84;100.00
23433;BME280;41331;45.412;10.992;2023-07-20T02:57:48;100256.63;;;23.84;100.00
23433;BME280;41331;45.412;10.992;2023-07-20T03:00:16;100269.88;;;23.76;100.00
23433;BME280;41331;45.412;10.992;2023-07-20T03:02:43;100255.56;;;23.78;100.00
23433;BME280;41331;45.412;10.992;2023-07-20T03:05:11;100257.78;;;23.87;100.00
23433;BME280;41331;45.412;10.992;2023-07-20T03:07:39;100273.78;;;23.79;100.00
23433;BME280;41331;45.412;10.992;2023-07-20T03:10:07;100281.19;;;23.62;100.00
23433;BME280;41331;45.412;10.992;2023-07-20T03:12:36;100282.25;;;23.72;100.00
23433;BME280;41331;45.412;10.992;2023-07-20T03:15:04;100288.66;;;23.69;100.00
23433;BME280;41331;45.412;10.992;2023-07-20T03:17:32;100286.84;;;23.82;100.00
23433;BME280;41331;45.412;10.992;2023-07-20T03:19:59;100285.97;;;23.62;100.00
23433;BME280;41331;45.412;10.992;2023-07-20T03:22:29;100284.09;;;23.55;100.00
23433;BME280;41331;45.412;10.992;2023-07-20T03:24:56;100270.50;;;23.61;100.00
23433;BME280;41331;45.412;10.992;2023-07-20T03:27:24;100279.31;;;23.56;100.00
23433;BME280;41331;45.412;10.992;2023-07-20T03:29:51;100277.00;;;23.50;100.00
23433;BME280;41331;45.412;10.992;2023-07-20T03:32:19;100286.28;;;23.40;100.00
23433;BME280;41331;45.412;10.992;2023-07-20T03:34:46;100280.34;;;23.38;100.00
23433;BME280;41331;45.412;10.992;2023-07-20T03:37:14;100280.78;;;23.37;100.00
23433;BME280;41331;45.412;10.992;2023-07-20T03:39:42;100278.22;;;23.49;100.00
23433;BME280;41331;45.412;10.992;2023-07-20T03:42:09;100275.44;;;23.49;100.00
23433;BME280;41331;45.412;10.992;2023-07-20T03:44:37;100272.84;;;23.66;100.00
23433;BME280;41331;45.412;10.992;2023-07-20T03:47:04;100268.66;;;23.77;100.00
23433;BME280;41331;45.412;10.992;2023-07-20T03:49:32;100266.81;;;23.71;100.00
23433;BME280;41331;45.412;10.992;2023-07-20T03:52:01;100267.63;;;23.68;100.00
23433;BME280;41331;45.412;10.992;2023-07-20T03:54:30;100265.59;;;23.45;100.00
23433;BME280;41331;45.412;10.992;2023-07-20T03:56:58;100268.38;;;23.45;100.00
23433;BME280;41331;45.412;10.992;2023-07-20T03:59:25;100280.00;;;23.63;100.00
23433;BME280;41331;45.412;10.992;2023-07-20T04:01:52;100281.66;;;23.57;100.00
23433;BME280;41331;45.412;10.992;2023-07-20T04:04:20;100277.22;;;23.63;100.00
23433;BME280;41331;45.412;10.992;2023-07-20T04:06:47;100279.91;;;23.70;100.00
23433;BME280;41331;45.412;10.992;2023-07-20T04:09:15;100274.72;;;23.72;100.00
23433;BME280;41331;45.412;10.992;2023-07-20T04:11:42;100280.00;;;23.63;100.00
23433;BME280;41331;45.412;10.992;2023-07-20T04:14:09;100282.09;;;23.56;100.00
23433;BME280;41331;45.412;10.992;2023-07-20T04:16:37;100278.69;;;23.71;100.00
23433;BME280;41331;45.412;10.992;2023-07-20T04:19:04;100273.78;;;23.79;100.00
23433;BME280;41331;45.412;10.992;2023-07-20T04:21:32;100266.47;;;23.89;100.00
23433;BME280;41331;45.412;10.992;2023-07-20T04:23:59;100273.50;;;23.97;100.00
23433;BME280;41331;45.412;10.992;2023-07-20T04:26:27;100279.53;;;24.15;100.00
23433;BME280;41331;45.412;10.992;2023-07-20T04:28:54;100278.81;;;24.11;100.00
23433;BME280;41331;45.412;10.992;2023-07-20T04:31:32;100281.44;;;24.18;100.00
23433;BME280;41331;45.412;10.992;2023-07-20T04:34:00;100284.44;;;24.08;100.00
23433;BME280;41331;45.412;10.992;2023-07-20T04:36:28;100280.19;;;23.99;100.00
23433;BME280;41331;45.412;10.992;2023-07-20T04:38:56;100288.28;;;24.14;100.00
23433;BME280;41331;45.412;10.992;2023-07-20T04:41:23;100293.97;;;24.07;100.00
23433;BME280;41331;45.412;10.992;2023-07-20T04:43:55;100296.91;;;24.19;100.00
23433;BME280;41331;45.412;10.992;2023-07-20T04:46:27;100293.72;;;24.21;100.00
23433;BME280;41331;45.412;10.992;2023-07-20T04:48:55;100291.34;;;24.19;100.00
23433;BME280;41331;45.412;10.992;2023-07-20T04:51:24;100290.22;;;24.17;100.00
23433;BME280;41331;45.412;10.992;2023-07-20T04:53:54;100291.75;;;24.21;100.00
23433;BME280;41331;45.412;10.992;2023-07-20T04:56:22;100292.94;;;24.20;100.00
23433;BME280;41331;45.412;10.992;2023-07-20T04:58:52;100289.31;;;24.23;100.00
23433;BME280;41331;45.412;10.992;2023-07-20T05:01:20;100294.88;;;24.23;100.00
23433;BME280;41331;45.412;10.992;2023-07-20T05:03:47;100297.84;;;24.13;100.00
23433;BME280;41331;45.412;10.992;2023-07-20T05:06:15;100295.44;;;24.35;100.00
23433;BME280;41331;45.412;10.992;2023-07-20T05:08:42;100297.06;;;24.36;100.00
23433;BME280;41331;45.412;10.992;2023-07-20T05:11:11;100292.59;;;24.42;100.00
23433;BME280;41331;45.412;10.992;2023-07-20T05:13:39;100300.72;;;24.29;100.00
23433;BME280;41331;45.412;10.992;2023-07-20T05:16:06;100289.84;;;24.38;100.00
23433;BME280;41331;45.412;10.992;2023-07-20T05:18:35;100287.88;;;24.59;100.00
23433;BME280;41331;45.412;10.992;2023-07-20T05:21:02;100288.31;;;24.57;100.00
23433;BME280;41331;45.412;10.992;2023-07-20T05:23:30;100290.38;;;24.53;100.00
23433;BME280;41331;45.412;10.992;2023-07-20T05:25:58;100285.69;;;24.50;100.00
23433;BME280;41331;45.412;10.992;2023-07-20T05:28:26;100286.81;;;24.52;100.00
23433;BME280;41331;45.412;10.992;2023-07-20T05:30:54;100300.78;;;24.49;100.00
23433;BME280;41331;45.412;10.992;2023-07-20T05:33:22;100299.50;;;24.73;100.00
23433;BME280;41331;45.412;10.992;2023-07-20T05:35:50;100291.53;;;24.75;100.00
23433;BME280;41331;45.412;10.992;2023-07-20T05:38:17;100297.50;;;24.94;100.00
23433;BME280;41331;45.412;10.992;2023-07-20T05:40:45;100298.56;;;25.00;100.00
23433;BME280;41331;45.412;10.992;2023-07-20T05:43:12;100300.34;;;25.10;100.00
23433;BME280;41331;45.412;10.992;2023-07-20T05:45:44;100299.22;;;25.08;100.00
23433;BME280;41331;45.412;10.992;2023-07-20T05:48:12;100305.78;;;25.17;100.00
23433;BME280;41331;45.412;10.992;2023-07-20T05:50:43;100307.34;;;25.18;100.00
23433;BME280;41331;45.412;10.992;2023-07-20T05:53:11;100314.28;;;25.10;100.00
23433;BME280;41331;45.412;10.992;2023-07-20T05:55:38;100312.47;;;25.20;100.00
23433;BME280;41331;45.412;10.992;2023-07-20T05:58:07;100313.78;;;25.15;100.00
23433;BME280;41331;45.412;10.992;2023-07-20T06:00:34;100311.16;;;25.08;100.00
23433;BME280;41331;45.412;10.992;2023-07-20T06:03:02;100307.78;;;25.17;100.00
23433;BME280;41331;45.412;10.992;2023-07-20T06:05:30;100306.91;;;25.20;100.00
23433;BME280;41331;45.412;10.992;2023-07-20T06:07:58;100309.88;;;25.29;100.00
23433;BME280;41331;45.412;10.992;2023-07-20T06:10:27;100305.94;;;25.46;100.00
23433;BME280;41331;45.412;10.992;2023-07-20T06:12:55;100303.22;;;25.43;100.00
23433;BME280;41331;45.412;10.992;2023-07-20T06:15:28;100304.50;;;25.38;100.00
23433;BME280;41331;45.412;10.992;2023-07-20T06:17:56;100319.69;;;25.53;100.00
23433;BME280;41331;45.412;10.992;2023-07-20T06:20:25;100315.78;;;25.51;100.00
23433;BME280;41331;45.412;10.992;2023-07-20T06:22:53;100317.59;;;25.57;100.00
23433;BME280;41331;45.412;10.992;2023-07-20T06:25:20;100318.66;;;25.64;100.00
23433;BME280;41331;45.412;10.992;2023-07-20T06:27:49;100324.16;;;25.83;100.00
23433;BME280;41331;45.412;10.992;2023-07-20T06:30:21;100326.69;;;25.78;100.00
23433;BME280;41331;45.412;10.992;2023-07-20T06:32:48;100325.13;;;25.77;100.00
23433;BME280;41331;45.412;10.992;2023-07-20T06:35:17;100333.16;;;25.91;100.00
23433;BME280;41331;45.412;10.992;2023-07-20T06:37:45;100323.28;;;26.03;100.00
23433;BME280;41331;45.412;10.992;2023-07-20T06:40:12;100325.94;;;26.39;100.00
23433;BME280;41331;45.412;10.992;2023-07-20T06:42:43;100327.63;;;26.37;100.00
23433;BME280;41331;45.412;10.992;2023-07-20T06:45:13;100323.56;;;26.54;100.00
23433;BME280;41331;45.412;10.992;2023-07-20T06:47:41;100327.38;;;26.89;100.00
23433;BME280;41331;45.412;10.992;2023-07-20T06:50:09;100327.47;;;26.85;100.00
23433;BME280;41331;45.412;10.992;2023-07-20T06:52:43;100330.16;;;27.18;100.00
23433;BME280;41331;45.412;10.992;2023-07-20T06:55:11;100338.88;;;27.33;100.00
23433;BME280;41331;45.412;10.992;2023-07-20T06:57:38;100344.25;;;27.53;100.00
23433;BME280;41331;45.412;10.992;2023-07-20T07:00:06;100340.47;;;27.85;96.71
23433;BME280;41331;45.412;10.992;2023-07-20T07:02:34;100347.75;;;27.57;96.20
23433;BME280;41331;45.412;10.992;2023-07-20T07:05:03;100340.34;;;27.38;94.69
23433;BME280;41331;45.412;10.992;2023-07-20T07:07:46;100350.06;;;27.58;96.32
23433;BME280;41331;45.412;10.992;2023-07-20T07:10:14;100350.06;;;27.58;97.54
23433;BME280;41331;45.412;10.992;2023-07-20T07:12:41;100354.69;;;27.78;97.03
23433;BME280;41331;45.412;10.992;2023-07-20T07:15:09;100358.03;;;27.85;94.66
23433;BME280;41331;45.412;10.992;2023-07-20T07:17:38;100349.56;;;27.76;95.15
23433;BME280;41331;45.412;10.992;2023-07-20T07:20:06;100360.59;;;27.80;95.30
23433;BME280;41331;45.412;10.992;2023-07-20T07:22:37;100357.00;;;28.05;93.29
23433;BME280;41331;45.412;10.992;2023-07-20T07:25:05;100362.25;;;28.03;90.50
23433;BME280;41331;45.412;10.992;2023-07-20T07:27:33;100349.38;;;28.18;91.11
23433;BME280;41331;45.412;10.992;2023-07-20T07:30:00;100357.59;;;28.47;88.96
23433;BME280;41331;45.412;10.992;2023-07-20T07:32:29;100359.03;;;28.52;89.90
23433;BME280;41331;45.412;10.992;2023-07-20T07:34:56;100358.13;;;28.55;87.15
23433;BME280;41331;45.412;10.992;2023-07-20T07:37:25;100357.59;;;28.69;86.98
23433;BME280;41331;45.412;10.992;2023-07-20T07:39:53;100368.88;;;28.78;85.07
23433;BME280;41331;45.412;10.992;2023-07-20T07:42:20;100362.13;;;28.88;85.92
23433;BME280;41331;45.412;10.992;2023-07-20T07:44:51;100360.84;;;29.02;80.65
23433;BME280;41331;45.412;10.992;2023-07-20T07:47:18;100360.72;;;29.37;81.28
23433;BME280;41331;45.412;10.992;2023-07-20T07:49:45;100363.69;;;29.11;77.61
23433;BME280;41331;45.412;10.992;2023-07-20T07:52:13;100359.50;;;29.16;78.83
23433;BME280;41331;45.412;10.992;2023-07-20T07:54:41;100357.94;;;29.37;77.98
23433;BME280;41331;45.412;10.992;2023-07-20T07:57:08;100368.50;;;29.33;76.91
23433;BME280;41331;45.412;10.992;2023-07-20T07:59:36;100374.25;;;29.60;71.21
23433;BME280;41331;45.412;10.992;2023-07-20T08:02:05;100365.25;;;29.75;73.87
23433;BME280;41331;45.412;10.992;2023-07-20T08:04:32;100377.03;;;29.60;77.09
23433;BME280;41331;45.412;10.992;2023-07-20T08:07:01;100373.16;;;29.67;75.50
23433;BME280;41331;45.412;10.992;2023-07-20T08:09:29;100376.13;;;29.32;74.02
23433;BME280;41331;45.412;10.992;2023-07-20T08:11:57;100377.56;;;29.68;73.16
23433;BME280;41331;45.412;10.992;2023-07-20T08:14:24;100378.81;;;29.45;73.40
23433;BME280;41331;45.412;10.992;2023-07-20T08:16:52;100379.53;;;29.58;73.93
23433;BME280;41331;45.412;10.992;2023-07-20T08:19:20;100377.31;;;29.53;75.17
23433;BME280;41331;45.412;10.992;2023-07-20T08:21:48;100380.50;;;29.64;71.34
23433;BME280;41331;45.412;10.992;2023-07-20T08:24:15;100376.38;;;29.87;70.82
23433;BME280;41331;45.412;10.992;2023-07-20T08:26:43;100374.72;;;30.08;70.49
23433;BME280;41331;45.412;10.992;2023-07-20T08:29:10;100374.50;;;30.43;69.91
23433;BME280;41331;45.412;10.992;2023-07-20T08:31:37;100375.72;;;30.33;72.37
23433;BME280;41331;45.412;10.992;2023-07-20T08:34:05;100372.09;;;30.14;70.32
23433;BME280;41331;45.412;10.992;2023-07-20T08:36:46;100374.94;;;30.32;69.69
23433;BME280;41331;45.412;10.992;2023-07-20T08:39:14;100373.97;;;30.17;70.15
23433;BME280;41331;45.412;10.992;2023-07-20T08:41:43;100377.59;;;30.45;68.50
23433;BME280;41331;45.412;10.992;2023-07-20T08:44:10;100374.47;;;30.61;68.62
23433;BME280;41331;45.412;10.992;2023-07-20T08:46:38;100371.53;;;30.65;67.76
23433;BME280;41331;45.412;10.992;2023-07-20T08:49:06;100373.69;;;30.61;67.30
23433;BME280;41331;45.412;10.992;2023-07-20T08:51:35;100374.50;;;30.71;68.79
23433;BME280;41331;45.412;10.992;2023-07-20T08:54:03;100385.56;;;30.56;68.20
23433;BME280;41331;45.412;10.992;2023-07-20T08:56:31;100380.47;;;30.73;66.06
23433;BME280;41331;45.412;10.992;2023-07-20T08:58:58;100375.38;;;31.32;62.45
23433;BME280;41331;45.412;10.992;2023-07-20T09:01:28;100388.22;;;31.14;64.59
23433;BME280;41331;45.412;10.992;2023-07-20T09:03:57;100377.69;;;31.42;66.02
23433;BME280;41331;45.412;10.992;2023-07-20T09:06:24;100379.13;;;31.71;61.65
23433;BME280;41331;45.412;10.992;2023-07-20T09:08:54;100377.19;;;31.53;59.32
23433;BME280;41331;45.412;10.992;2023-07-20T09:11:22;100383.09;;;31.64;61.52
23433;BME280;41331;45.412;10.992;2023-07-20T09:14:07;100378.44;;;31.52;63.82
23433;BME280;41331;45.412;10.992;2023-07-20T09:19:16;100379.38;;;31.91;59.95
23433;BME280;41331;45.412;10.992;2023-07-20T09:21:49;100376.19;;;31.65;60.05
23433;BME280;41331;45.412;10.992;2023-07-20T09:24:18;100377.34;;;31.92;60.47
23433;BME280;41331;45.412;10.992;2023-07-20T09:26:47;100375.13;;;31.96;52.79
23433;BME280;41331;45.412;10.992;2023-07-20T09:29:19;100373.31;;;32.41;52.75
23433;BME280;41331;45.412;10.992;2023-07-20T09:31:59;100370.78;;;32.43;50.75
23433;BME280;41331;45.412;10.992;2023-07-20T09:34:31;100367.59;;;32.50;53.63
23433;BME280;41331;45.412;10.992;2023-07-20T09:37:02;100366.69;;;32.20;54.74
23433;BME280;41331;45.412;10.992;2023-07-20T09:39:30;100370.13;;;32.63;53.88
23433;BME280;41331;45.412;10.992;2023-07-20T09:42:01;100362.34;;;32.96;48.88
23433;BME280;41331;45.412;10.992;2023-07-20T09:44:32;100368.34;;;32.74;45.74
23433;BME280;41331;45.412;10.992;2023-07-20T09:47:03;100373.59;;;32.43;46.90
23433;BME280;41331;45.412;10.992;2023-07-20T09:49:39;100369.56;;;32.59;51.58
23433;BME280;41331;45.412;10.992;2023-07-20T09:52:09;100372.91;;;32.48;54.05
23433;BME280;41331;45.412;10.992;2023-07-20T09:54:39;100371.41;;;32.62;50.99
23433;BME280;41331;45.412;10.992;2023-07-20T09:57:07;100371.53;;;32.82;49.82
23433;BME280;41331;45.412;10.992;2023-07-20T09:59:39;100364.44;;;32.87;49.45
23433;BME280;41331;45.412;10.992;2023-07-20T10:02:18;100361.84;;;33.28;49.84
23433;BME280;41331;45.412;10.992;2023-07-20T10:04:52;100360.03;;;33.10;49.31
23433;BME280;41331;45.412;10.992;2023-07-20T10:07:22;100361.31;;;33.09;48.90
23433;BME280;41331;45.412;10.992;2023-07-20T10:09:51;100360.63;;;32.99;51.54
23433;BME280;41331;45.412;10.992;2023-07-20T10:12:22;100364.16;;;32.85;55.09
23433;BME280;41331;45.412;10.992;2023-07-20T10:15:20;100361.75;;;32.92;54.84
23433;BME280;41331;45.412;10.992;2023-07-20T10:20:42;100359.94;;;33.19;54.27
23433;BME280;41331;45.412;10.992;2023-07-20T10:23:13;100360.50;;;33.23;53.71
23433;BME280;41331;45.412;10.992;2023-07-20T10:25:41;100351.81;;;32.82;55.28
23433;BME280;41331;45.412;10.992;2023-07-20T10:28:10;100354.28;;;32.89;53.25
23433;BME280;41331;45.412;10.992;2023-07-20T10:30:38;100356.75;;;32.72;53.58
23433;BME280;41331;45.412;10.992;2023-07-20T10:33:07;100353.13;;;32.57;55.30
23433;BME280;41331;45.412;10.992;2023-07-20T10:35:56;100349.19;;;32.64;55.49
23433;BME280;41331;45.412;10.992;2023-07-20T10:38:52;100350.56;;;32.98;56.90
23433;BME280;41331;45.412;10.992;2023-07-20T10:41:21;100346.09;;;33.50;54.85
23433;BME280;41331;45.412;10.992;2023-07-20T10:43:58;100343.78;;;33.49;52.89
23433;BME280;41331;45.412;10.992;2023-07-20T10:49:10;100348.25;;;32.96;56.22
23433;BME280;41331;45.412;10.992;2023-07-20T10:51:41;100345.53;;;33.46;52.50
23433;BME280;41331;45.412;10.992;2023-07-20T10:57:29;100332.75;;;33.66;50.26
23433;BME280;41331;45.412;10.992;2023-07-20T11:00:12;100331.03;;;33.39;51.16
23433;BME280;41331;45.412;10.992;2023-07-20T11:02:48;100327.13;;;33.36;51.32
23433;BME280;41331;45.412;10.992;2023-07-20T11:05:38;100328.03;;;33.78;50.08
23433;BME280;41331;45.412;10.992;2023-07-20T11:08:10;100323.22;;;33.84;49.65
23433;BME280;41331;45.412;10.992;2023-07-20T11:10:38;100324.66;;;33.59;48.43
23433;BME280;41331;45.412;10.992;2023-07-20T11:13:17;100325.28;;;33.83;49.81
23433;BME280;41331;45.412;10.992;2023-07-20T11:15:46;100319.34;;;33.81;50.77
23433;BME280;41331;45.412;10.992;2023-07-20T11:18:14;100320.13;;;33.82;50.51
23433;BME280;41331;45.412;10.992;2023-07-20T11:20:42;100315.09;;;34.06;45.90
23433;BME280;41331;45.412;10.992;2023-07-20T11:23:10;100318.09;;;33.82;48.30
23433;BME280;41331;45.412;10.992;2023-07-20T11:25:39;100311.69;;;33.32;48.84
23433;BME280;41331;45.412;10.992;2023-07-20T11:28:08;100292.16;;;33.13;49.93
23433;BME280;41331;45.412;10.992;2023-07-20T11:30:38;100302.75;;;33.18;51.57
23433;BME280;41331;45.412;10.992;2023-07-20T11:33:08;100296.09;;;33.51;47.24
23433;BME280;41331;45.412;10.992;2023-07-20T11:35:42;100299.28;;;34.14;47.16
23433;BME280;41331;45.412;10.992;2023-07-20T11:38:12;100291.88;;;33.96;46.32
23433;BME280;41331;45.412;10.992;2023-07-20T11:40:44;100292.75;;;34.28;46.68
23433;BME280;41331;45.412;10.992;2023-07-20T11:43:15;100289.69;;;34.06;47.14
23433;BME280;41331;45.412;10.992;2023-07-20T11:45:45;100288.94;;;33.91;47.08
23433;BME280;41331;45.412;10.992;2023-07-20T11:48:16;100286.84;;;34.26;47.26
23433;BME280;41331;45.412;10.992;2023-07-20T11:50:44;100285.50;;;34.22;45.67
23433;BME280;41331;45.412;10.992;2023-07-20T11:53:11;100284.47;;;33.99;46.33
23433;BME280;41331;45.412;10.992;2023-07-20T11:55:42;100281.06;;;34.15;46.35
23433;BME280;41331;45.412;10.992;2023-07-20T11:58:10;100272.66;;;34.21;44.65
23433;BME280;41331;45.412;10.992;2023-07-20T12:00:38;100273.47;;;34.47;44.55
23433;BME280;41331;45.412;10.992;2023-07-20T12:03:09;100271.75;;;34.09;47.91
23433;BME280;41331;45.412;10.992;2023-07-20T12:05:38;100269.91;;;34.06;43.32
23433;BME280;41331;45.412;10.992;2023-07-20T12:08:26;100261.75;;;33.73;45.57
23433;BME280;41331;45.412;10.992;2023-07-20T12:10:53;100263.09;;;33.57;44.29
23433;BME280;41331;45.412;10.992;2023-07-20T12:13:20;100252.53;;;33.93;44.92
23433;BME280;41331;45.412;10.992;2023-07-20T12:15:48;100258.09;;;33.32;45.04
23433;BME280;41331;45.412;10.992;2023-07-20T12:18:15;100261.28;;;33.54;45.61
23433;BME280;41331;45.412;10.992;2023-07-20T12:20:43;100255.41;;;33.78;47.54
23433;BME280;41331;45.412;10.992;2023-07-20T12:23:12;100251.19;;;33.88;47.62
23433;BME280;41331;45.412;10.992;2023-07-20T12:25:42;100254.72;;;34.04;46.37
23433;BME280;41331;45.412;10.992;2023-07-20T12:28:14;100245.81;;;34.31;47.76
23433;BME280;41331;45.412;10.992;2023-07-20T12:30:44;100243.38;;;34.44;44.71
23433;BME280;41331;45.412;10.992;2023-07-20T12:33:12;100248.34;;;34.49;47.15
23433;BME280;41331;45.412;10.992;2023-07-20T12:35:43;100235.81;;;34.56;47.63
23433;BME280;41331;45.412;10.992;2023-07-20T12:38:11;100248.47;;;34.40;48.88
23433;BME280;41331;45.412;10.992;2023-07-20T12:40:38;100239.19;;;34.60;49.74
23433;BME280;41331;45.412;10.992;2023-07-20T12:43:06;100239.47;;;34.62;48.56
23433;BME280;41331;45.412;10.992;2023-07-20T12:45:34;100232.53;;;34.63;46.71
23433;BME280;41331;45.412;10.992;2023-07-20T12:48:01;100229.38;;;34.30;48.20
23433;BME280;41331;45.412;10.992;2023-07-20T12:50:29;100226.34;;;34.39;48.18
23433;BME280;41331;45.412;10.992;2023-07-20T12:52:57;100232.97;;;34.30;48.82
23433;BME280;41331;45.412;10.992;2023-07-20T12:55:24;100227.56;;;34.06;51.77
23433;BME280;41331;45.412;10.992;2023-07-20T12:57:52;100231.34;;;34.23;48.96
23433;BME280;41331;45.412;10.992;2023-07-20T13:00:19;100235.34;;;34.37;48.07
23433;BME280;41331;45.412;10.992;2023-07-20T13:02:47;100225.38;;;34.42;48.26
23433;BME280;41331;45.412;10.992;2023-07-20T13:05:16;100227.78;;;34.28;47.20